Time;durP1;ratioP1;P1;durP2;ratioP2;P2;SDS_P1;SDS_P2;PMS_P1;PMS_P2;Temp;Humidity;BMP_temperature;BMP_pressure;BME280_temperature;BME280_humidity;BME280_pressure;Samples;Min_cycle;Max_cycle;Signal;HPM_P1;HPM_P2
2023/01/16 00:01:59;;;;;;;9.75;3.65;;;;;;;;;;5101564;28;20512;-71
2023/01/16 00:04:26;;;;;;;9.27;3.90;;;;;;;;;;5095404;28;21174;-72
2023/01/16 00:06:52;;;;;;;8.15;3.80;;;;;;;;;;5091857;28;20096;-71
2023/01/16 00:09:18;;;;;;;6.68;3.15;;;;;;;;;;5092249;28;20051;-71
2023/01/16 00:11:44;;;;;;;6.93;3.58;;;;;;;;;;5096921;28;20443;-71
2023/01/16 00:14:11;;;;;;;11.73;4.57;;;;;;;;;;5096171;28;20058;-71
2023/01/16 00:16:37;;;;;;;8.75;4.75;;;;;;;;;;5102151;28;20065;-71
2023/01/16 00:19:03;;;;;;;10.45;5.15;;;;;;;;;;5098945;28;20090;-70
2023/01/16 00:21:29;;;;;;;11.50;4.88;;;;;;;;;;5099394;28;20050;-71
2023/01/16 00:23:56;;;;;;;12.05;4.90;;;;;;;;;;5101895;28;20163;-71
2023/01/16 00:26:23;;;;;;;11.30;3.92;;;;;;;;;;5103133;28;20040;-71
2023/01/16 00:28:49;;;;;;;7.53;3.40;;;;;;;;;;5098715;28;20081;-71
2023/01/16 00:31:16;;;;;;;10.38;3.97;;;;;;;;;;5104039;28;20040;-71
2023/01/16 00:33:42;;;;;;;9.27;3.83;;;;;;;;;;5103752;28;20502;-71
2023/01/16 00:36:09;;;;;;;7.15;4.05;;;;;;;;;;5108806;28;20604;-71
2023/01/16 00:38:35;;;;;;;10.40;3.65;;;;;;;;;;5106914;28;20051;-71
2023/01/16 00:41:02;;;;;;;12.30;4.70;;;;;;;;;;5101073;27;20043;-70
2023/01/16 00:43:28;;;;;;;9.05;4.55;;;;;;;;;;5107551;28;20051;-71
2023/01/16 00:45:56;;;;;;;10.48;5.15;;;;;;;;;;5098306;27;22260;-71
2023/01/16 00:48:22;;;;;;;13.25;5.97;;;;;;;;;;5103085;27;20067;-71
2023/01/16 00:50:49;;;;;;;12.75;5.85;;;;;;;;;;5104407;27;20035;-71
2023/01/16 00:53:15;;;;;;;11.13;5.68;;;;;;;;;;5105438;28;20122;-71
2023/01/16 00:55:41;;;;;;;16.25;7.40;;;;;;;;;;5105290;28;20389;-71
2023/01/16 00:58:08;;;;;;;14.95;6.78;;;;;;;;;;5099765;28;20402;-71
2023/01/16 01:00:35;;;;;;;12.68;6.57;;;;;;;;;;5102778;27;21470;-71
2023/01/16 01:03:02;;;;;;;12.05;6.75;;;;;;;;;;5106812;27;20415;-71
2023/01/16 01:05:28;;;;;;;16.02;8.02;;;;;;;;;;5100098;28;20043;-71
2023/01/16 01:07:54;;;;;;;13.88;7.15;;;;;;;;;;5104098;27;20040;-71
2023/01/16 01:10:20;;;;;;;18.08;7.88;;;;;;;;;;5108181;28;20036;-71
2023/01/16 01:12:47;;;;;;;14.65;6.65;;;;;;;;;;5107759;27;20061;-71
2023/01/16 01:15:13;;;;;;;14.27;6.85;;;;;;;;;;5106592;27;20118;-71
2023/01/16 01:17:39;;;;;;;14.40;7.03;;;;;;;;;;5108360;28;20052;-71
2023/01/16 01:20:05;;;;;;;12.70;6.95;;;;;;;;;;5099257;28;20467;-72
2023/01/16 01:22:31;;;;;;;14.77;7.35;;;;;;;;;;5104065;27;20032;-74
2023/01/16 01:24:58;;;;;;;13.88;6.75;;;;;;;;;;5105490;27;20051;-69
2023/01/16 01:27:24;;;;;;;12.85;6.88;;;;;;;;;;5098166;27;21006;-69
2023/01/16 01:29:50;;;;;;;12.43;6.95;;;;;;;;;;5105033;27;20051;-70
2023/01/16 01:32:16;;;;;;;11.10;7.60;;;;;;;;;;5108672;27;20166;-71
2023/01/16 01:34:42;;;;;;;19.77;8.20;;;;;;;;;;5106783;27;20047;-71
2023/01/16 01:37:08;;;;;;;14.52;7.63;;;;;;;;;;5106661;28;20098;-71
2023/01/16 01:39:35;;;;;;;11.82;6.97;;;;;;;;;;5107555;28;20335;-71
2023/01/16 01:44:50;;;;;;;13.93;7.78;;;;;;;;;;5104566;27;20063;-71
2023/01/16 01:47:18;;;;;;;14.80;6.93;;;;;;;;;;5102858;27;20039;-71
2023/01/16 01:49:44;;;;;;;15.48;7.07;;;;;;;;;;5099066;28;20043;-71
2023/01/16 01:52:11;;;;;;;17.67;7.53;;;;;;;;;;5103858;27;20387;-70
2023/01/16 01:54:40;;;;;;;19.83;7.53;;;;;;;;;;5103163;27;21468;-70
2023/01/16 01:57:10;;;;;;;13.75;7.50;;;;;;;;;;5101821;27;20402;-71
2023/01/16 01:59:39;;;;;;;11.50;6.03;;;;;;;;;;5098251;28;20059;-71
2023/01/16 02:02:06;;;;;;;12.68;6.18;;;;;;;;;;5103960;27;20535;-70
2023/01/16 02:04:34;;;;;;;13.40;6.90;;;;;;;;;;5102629;27;20089;-71
2023/01/16 02:07:03;;;;;;;15.35;6.60;;;;;;;;;;5104669;27;20040;-71
2023/01/16 02:09:29;;;;;;;13.68;6.78;;;;;;;;;;5098371;28;20572;-71
2023/01/16 02:12:04;;;;;;;13.73;6.25;;;;;;;;;;5105887;28;20048;-71
2023/01/16 02:14:33;;;;;;;16.25;7.38;;;;;;;;;;5102489;27;20047;-70
2023/01/16 02:20:02;;;;;;;18.02;6.95;;;;;;;;;;5107515;27;20130;-71
2023/01/16 02:22:42;;;;;;;18.42;7.25;;;;;;;;;;5106782;28;20043;-71
2023/01/16 02:25:17;;;;;;;12.57;6.00;;;;;;;;;;5095946;27;20047;-71
2023/01/16 02:27:43;;;;;;;16.83;6.78;;;;;;;;;;5100624;28;20039;-71
2023/01/16 02:30:19;;;;;;;14.80;6.22;;;;;;;;;;5103241;27;20040;-71
2023/01/16 02:32:53;;;;;;;16.10;6.32;;;;;;;;;;5103489;27;20039;-71
2023/01/16 02:35:26;;;;;;;12.23;5.68;;;;;;;;;;5098202;28;20051;-71
2023/01/16 02:37:55;;;;;;;12.52;5.10;;;;;;;;;;5102141;27;20085;-70
2023/01/16 02:40:22;;;;;;;8.73;4.95;;;;;;;;;;5103614;27;20158;-70
2023/01/16 02:42:50;;;;;;;16.70;5.45;;;;;;;;;;5106929;27;20088;-70
2023/01/16 02:45:30;;;;;;;15.27;5.35;;;;;;;;;;5107801;27;20065;-70
2023/01/16 02:47:56;;;;;;;16.35;4.80;;;;;;;;;;5108139;27;20384;-70
2023/01/16 02:50:32;;;;;;;16.42;5.32;;;;;;;;;;5092267;27;20447;-70
2023/01/16 02:53:14;;;;;;;15.50;5.70;;;;;;;;;;5105997;27;20055;-70
2023/01/16 02:55:44;;;;;;;11.75;5.00;;;;;;;;;;5107175;27;20122;-70
2023/01/16 02:58:11;;;;;;;12.20;5.63;;;;;;;;;;5107453;27;20046;-70
2023/01/16 03:00:37;;;;;;;17.17;7.07;;;;;;;;;;5070398;27;20062;-70
2023/01/16 03:03:04;;;;;;;13.23;5.80;;;;;;;;;;5107967;27;20100;-70
2023/01/16 03:05:34;;;;;;;13.45;6.63;;;;;;;;;;5090629;27;20058;-70
2023/01/16 03:08:18;;;;;;;14.00;6.35;;;;;;;;;;5107513;27;20090;-70
2023/01/16 03:11:04;;;;;;;13.15;6.18;;;;;;;;;;5107483;27;20047;-70
2023/01/16 03:13:43;;;;;;;14.18;6.80;;;;;;;;;;5107743;27;20099;-70
2023/01/16 03:16:09;;;;;;;11.75;7.20;;;;;;;;;;5088028;28;20185;-70
2023/01/16 03:18:39;;;;;;;15.80;7.68;;;;;;;;;;5090995;28;20050;-70
2023/01/16 03:21:11;;;;;;;17.73;7.80;;;;;;;;;;5086963;27;20052;-70
2023/01/16 03:23:45;;;;;;;18.60;8.40;;;;;;;;;;5088236;27;20441;-70
2023/01/16 03:26:15;;;;;;;16.95;8.13;;;;;;;;;;5106744;27;20486;-70
2023/01/16 03:28:50;;;;;;;15.13;8.00;;;;;;;;;;5104601;27;20044;-70
2023/01/16 03:31:21;;;;;;;16.25;8.02;;;;;;;;;;5108993;27;20382;-70
2023/01/16 03:33:58;;;;;;;16.27;8.55;;;;;;;;;;5108655;27;20065;-70
2023/01/16 03:36:30;;;;;;;19.10;9.45;;;;;;;;;;5092092;28;20043;-70
2023/01/16 03:38:58;;;;;;;14.43;8.75;;;;;;;;;;5092153;28;20047;-70
2023/01/16 03:41:26;;;;;;;22.52;8.02;;;;;;;;;;5107021;27;20087;-70
2023/01/16 03:43:55;;;;;;;16.08;8.73;;;;;;;;;;5101019;27;20058;-70
2023/01/16 03:46:25;;;;;;;15.57;9.18;;;;;;;;;;5101729;27;20045;-70
2023/01/16 03:48:54;;;;;;;16.40;9.40;;;;;;;;;;5101529;27;20067;-70
2023/01/16 03:51:25;;;;;;;17.42;9.88;;;;;;;;;;5098572;28;20043;-70
2023/01/16 03:54:02;;;;;;;15.20;9.23;;;;;;;;;;5093928;28;20086;-70
2023/01/16 03:56:41;;;;;;;26.13;10.80;;;;;;;;;;5099970;28;20883;-70
2023/01/16 03:59:07;;;;;;;19.17;10.02;;;;;;;;;;5099844;28;20052;-70
2023/01/16 04:01:46;;;;;;;20.52;11.23;;;;;;;;;;5101026;28;20410;-70
2023/01/16 04:04:16;;;;;;;19.98;12.10;;;;;;;;;;5100299;28;20047;-70
2023/01/16 04:06:47;;;;;;;17.27;10.93;;;;;;;;;;5101439;28;20122;-70
2023/01/16 04:09:15;;;;;;;16.15;10.82;;;;;;;;;;5099298;27;20828;-70
2023/01/16 04:11:43;;;;;;;17.85;10.30;;;;;;;;;;5100929;28;20078;-70
2023/01/16 04:14:10;;;;;;;19.73;10.75;;;;;;;;;;5103794;28;20245;-70
2023/01/16 04:16:38;;;;;;;20.02;10.38;;;;;;;;;;5098015;28;20044;-70
2023/01/16 04:19:05;;;;;;;17.50;10.23;;;;;;;;;;5102742;28;20062;-70
2023/01/16 04:21:31;;;;;;;16.92;10.95;;;;;;;;;;5097087;28;20078;-70
2023/01/16 04:23:59;;;;;;;18.05;10.15;;;;;;;;;;5100932;28;21157;-70
2023/01/16 04:26:25;;;;;;;21.05;10.73;;;;;;;;;;5100972;28;20490;-71
2023/01/16 04:28:54;;;;;;;18.55;10.60;;;;;;;;;;5102193;28;20463;-71
2023/01/16 04:31:22;;;;;;;18.17;10.27;;;;;;;;;;5096892;28;20047;-71
2023/01/16 04:33:48;;;;;;;19.88;10.57;;;;;;;;;;5105865;28;20040;-71
2023/01/16 04:36:15;;;;;;;21.75;10.05;;;;;;;;;;5104083;28;20100;-70
2023/01/16 04:38:41;;;;;;;16.25;10.43;;;;;;;;;;5100452;28;20124;-71
2023/01/16 04:41:07;;;;;;;20.50;10.75;;;;;;;;;;5094348;28;20048;-70
2023/01/16 04:43:33;;;;;;;22.33;11.15;;;;;;;;;;5097173;28;20048;-70
2023/01/16 04:45:59;;;;;;;19.27;12.07;;;;;;;;;;5100538;28;20151;-71
2023/01/16 04:48:25;;;;;;;20.45;11.90;;;;;;;;;;5100532;28;20045;-70
2023/01/16 04:50:52;;;;;;;20.08;11.80;;;;;;;;;;5101128;28;20039;-70
2023/01/16 04:53:18;;;;;;;20.83;11.82;;;;;;;;;;5100665;28;20043;-71
2023/01/16 04:55:44;;;;;;;20.60;12.82;;;;;;;;;;5101567;28;20071;-71
2023/01/16 04:58:10;;;;;;;19.90;13.82;;;;;;;;;;5095567;28;20040;-71
2023/01/16 05:00:36;;;;;;;22.05;13.75;;;;;;;;;;5100959;28;20384;-71
2023/01/16 05:03:02;;;;;;;22.42;14.35;;;;;;;;;;5100800;28;20047;-70
2023/01/16 05:05:28;;;;;;;25.90;14.85;;;;;;;;;;5094412;28;20072;-71
2023/01/16 05:10:39;;;;;;;26.42;14.02;;;;;;;;;;5101636;28;20060;-70
2023/01/16 05:13:05;;;;;;;28.02;15.02;;;;;;;;;;5101818;28;20051;-70
2023/01/16 05:15:32;;;;;;;35.60;15.02;;;;;;;;;;5100810;28;20056;-70
2023/01/16 05:17:58;;;;;;;28.58;15.15;;;;;;;;;;5094188;28;20047;-70
2023/01/16 05:20:24;;;;;;;28.73;14.75;;;;;;;;;;5093569;28;20123;-70
2023/01/16 05:22:50;;;;;;;28.75;15.38;;;;;;;;;;5114581;27;20043;-70
2023/01/16 05:25:16;;;;;;;28.42;14.02;;;;;;;;;;5107486;28;20059;-70
2023/01/16 05:27:42;;;;;;;28.55;15.38;;;;;;;;;;5098855;27;20047;-70
2023/01/16 05:30:09;;;;;;;38.58;15.27;;;;;;;;;;5103585;27;20087;-70
2023/01/16 05:32:35;;;;;;;28.30;15.25;;;;;;;;;;5104619;27;20067;-70
2023/01/16 05:35:02;;;;;;;26.65;15.73;;;;;;;;;;5107201;27;20103;-70
2023/01/16 05:37:28;;;;;;;26.45;14.52;;;;;;;;;;5103338;28;20407;-69
2023/01/16 05:39:56;;;;;;;30.00;14.77;;;;;;;;;;5096330;27;20043;-69
2023/01/16 05:42:24;;;;;;;30.35;15.90;;;;;;;;;;5102471;27;20054;-70
2023/01/16 05:44:51;;;;;;;35.72;14.55;;;;;;;;;;5102960;27;20044;-70
2023/01/16 05:47:18;;;;;;;25.90;14.95;;;;;;;;;;5104254;27;20791;-70
2023/01/16 05:49:44;;;;;;;32.78;16.13;;;;;;;;;;5097525;28;20044;-70
2023/01/16 05:52:10;;;;;;;31.17;16.10;;;;;;;;;;5103550;27;20040;-71
2023/01/16 05:54:37;;;;;;;29.00;16.08;;;;;;;;;;5103904;27;20047;-70
2023/01/16 05:57:03;;;;;;;27.27;16.23;;;;;;;;;;5102956;27;20062;-71
2023/01/16 05:59:29;;;;;;;35.72;18.48;;;;;;;;;;5098079;28;20051;-71
2023/01/16 06:01:56;;;;;;;33.90;17.25;;;;;;;;;;5101518;27;20043;-70
2023/01/16 06:04:23;;;;;;;30.08;17.27;;;;;;;;;;5103985;27;20043;-70
2023/01/16 06:06:49;;;;;;;33.88;18.92;;;;;;;;;;5103707;27;20482;-70
2023/01/16 06:09:15;;;;;;;31.23;16.88;;;;;;;;;;5102439;27;20543;-70
2023/01/16 06:11:41;;;;;;;38.88;18.90;;;;;;;;;;5102958;27;20439;-70
2023/01/16 06:14:08;;;;;;;30.45;17.13;;;;;;;;;;5102491;27;20050;-70
2023/01/16 06:16:35;;;;;;;38.72;19.05;;;;;;;;;;5103774;28;20043;-70
2023/01/16 06:19:01;;;;;;;31.75;17.02;;;;;;;;;;5096867;28;20467;-70
2023/01/16 06:21:28;;;;;;;31.13;17.52;;;;;;;;;;5102087;27;20452;-70
2023/01/16 06:23:54;;;;;;;32.92;16.58;;;;;;;;;;5103323;28;20031;-70
2023/01/16 06:26:20;;;;;;;33.97;17.27;;;;;;;;;;5102992;27;20051;-70
2023/01/16 06:28:47;;;;;;;37.92;17.00;;;;;;;;;;5098276;28;20044;-71
2023/01/16 06:31:13;;;;;;;29.83;15.93;;;;;;;;;;5102472;28;20104;-70
2023/01/16 06:33:39;;;;;;;31.92;16.13;;;;;;;;;;5102200;27;20461;-70
2023/01/16 06:36:05;;;;;;;37.78;18.10;;;;;;;;;;5103482;28;20461;-70
2023/01/16 06:38:31;;;;;;;28.75;14.48;;;;;;;;;;5104154;27;20058;-71
2023/01/16 06:40:58;;;;;;;30.83;14.88;;;;;;;;;;5097439;28;20056;-70
2023/01/16 06:43:24;;;;;;;34.97;15.73;;;;;;;;;;5101577;27;20095;-70
2023/01/16 06:45:50;;;;;;;26.00;14.18;;;;;;;;;;5099105;28;20417;-70
2023/01/16 06:48:17;;;;;;;30.38;14.25;;;;;;;;;;5098976;28;20057;-70
2023/01/16 06:50:43;;;;;;;22.80;14.30;;;;;;;;;;5099641;27;20031;-70
2023/01/16 06:53:09;;;;;;;26.38;14.10;;;;;;;;;;5096763;28;20047;-70
2023/01/16 06:55:36;;;;;;;24.80;14.57;;;;;;;;;;5097308;27;20440;-70
2023/01/16 06:58:02;;;;;;;25.08;14.20;;;;;;;;;;5103467;28;20036;-70
2023/01/16 07:00:28;;;;;;;34.38;15.15;;;;;;;;;;5103504;28;21003;-70
2023/01/16 07:02:55;;;;;;;31.02;15.05;;;;;;;;;;5105468;27;20234;-70
2023/01/16 07:05:22;;;;;;;26.58;13.88;;;;;;;;;;5102075;27;20460;-70
2023/01/16 07:07:49;;;;;;;27.40;14.20;;;;;;;;;;5097501;27;20084;-69
2023/01/16 07:10:15;;;;;;;23.73;13.65;;;;;;;;;;5102281;27;20040;-70
2023/01/16 07:12:41;;;;;;;26.70;15.38;;;;;;;;;;5100257;28;20118;-69
2023/01/16 07:23:26;;;;;;;34.13;13.07;;;;;;;;;;5095404;27;20442;-68
2023/01/16 07:25:52;;;;;;;24.25;12.55;;;;;;;;;;5101911;28;20043;-70
2023/01/16 07:28:18;;;;;;;22.75;11.82;;;;;;;;;;5103386;27;20445;-70
2023/01/16 07:30:45;;;;;;;25.73;13.30;;;;;;;;;;5093953;28;20785;-70
2023/01/16 07:33:11;;;;;;;25.80;12.82;;;;;;;;;;5093746;28;20068;-69
2023/01/16 07:35:38;;;;;;;21.90;12.25;;;;;;;;;;5107149;27;20043;-71
2023/01/16 07:38:04;;;;;;;23.00;11.68;;;;;;;;;;5108551;28;20035;-70
2023/01/16 07:40:30;;;;;;;23.30;12.23;;;;;;;;;;5106679;28;20047;-71
2023/01/16 07:42:56;;;;;;;20.15;11.05;;;;;;;;;;5099568;28;20181;-70
2023/01/16 07:45:22;;;;;;;16.55;10.30;;;;;;;;;;5095740;28;20035;-69
2023/01/16 07:47:49;;;;;;;18.02;10.23;;;;;;;;;;5100233;28;20452;-68
2023/01/16 07:50:15;;;;;;;23.67;10.05;;;;;;;;;;5100160;28;20089;-70
2023/01/16 07:52:43;;;;;;;19.80;8.75;;;;;;;;;;5111518;27;20043;-69
2023/01/16 07:55:09;;;;;;;20.08;8.27;;;;;;;;;;5110629;27;20048;-70
2023/01/16 07:57:36;;;;;;;17.20;8.40;;;;;;;;;;5098110;28;20126;-70
2023/01/16 08:00:03;;;;;;;20.02;9.15;;;;;;;;;;5093644;28;20509;-71
2023/01/16 08:02:30;;;;;;;19.65;8.27;;;;;;;;;;5105455;28;20047;-70
2023/01/16 08:04:56;;;;;;;18.95;8.35;;;;;;;;;;5104006;28;20028;-70
2023/01/16 08:07:22;;;;;;;19.48;8.10;;;;;;;;;;5106418;28;20058;-70
2023/01/16 08:09:48;;;;;;;22.65;7.80;;;;;;;;;;5108040;28;20122;-70
2023/01/16 08:12:14;;;;;;;19.05;7.80;;;;;;;;;;5108914;28;20047;-70
2023/01/16 08:14:41;;;;;;;16.48;8.75;;;;;;;;;;5108458;28;20039;-70
2023/01/16 08:17:07;;;;;;;18.35;9.02;;;;;;;;;;5106312;28;20395;-70
2023/01/16 08:19:33;;;;;;;16.85;8.25;;;;;;;;;;5108429;28;20086;-70
2023/01/16 08:21:59;;;;;;;15.00;7.57;;;;;;;;;;5107897;28;20032;-70
2023/01/16 08:24:25;;;;;;;15.75;7.35;;;;;;;;;;5108927;28;20084;-71
2023/01/16 08:26:52;;;;;;;21.17;6.95;;;;;;;;;;5108918;28;20039;-71
2023/01/16 08:29:18;;;;;;;15.15;6.50;;;;;;;;;;5108534;28;20534;-71
2023/01/16 08:31:44;;;;;;;17.70;6.80;;;;;;;;;;5107846;28;20036;-70
2023/01/16 08:34:11;;;;;;;13.75;6.32;;;;;;;;;;5106781;28;20044;-70
2023/01/16 08:36:37;;;;;;;20.30;7.45;;;;;;;;;;5107354;28;20048;-70
2023/01/16 08:39:03;;;;;;;15.00;6.97;;;;;;;;;;5098288;28;20471;-70
2023/01/16 08:52:34;;;;;;;11.55;6.20;;;;;;;;;;5108964;28;20063;-70
2023/01/16 08:55:00;;;;;;;18.42;6.53;;;;;;;;;;5111849;28;20047;-69
2023/01/16 08:57:28;;;;;;;17.92;6.97;;;;;;;;;;5111636;28;20036;-69
2023/01/16 08:59:54;;;;;;;14.98;6.47;;;;;;;;;;5116166;28;20050;-70
2023/01/16 09:02:21;;;;;;;16.73;6.70;;;;;;;;;;5117712;27;20078;-70
2023/01/16 09:04:48;;;;;;;18.75;6.00;;;;;;;;;;5108510;28;20031;-70
2023/01/16 09:07:15;;;;;;;12.95;6.18;;;;;;;;;;5106309;28;20067;-72
2023/01/16 09:09:41;;;;;;;16.80;6.00;;;;;;;;;;5101895;28;20118;-74
2023/01/16 09:14:55;;;;;;;15.65;6.68;;;;;;;;;;5114249;28;20079;-70
2023/01/16 09:17:21;;;;;;;15.73;5.78;;;;;;;;;;5114660;28;20073;-70
2023/01/16 09:19:47;;;;;;;10.20;5.38;;;;;;;;;;5113697;28;20122;-70
2023/01/16 09:22:13;;;;;;;13.23;6.32;;;;;;;;;;5112543;27;20049;-70
2023/01/16 09:24:39;;;;;;;15.05;6.10;;;;;;;;;;5097920;28;20059;-71
2023/01/16 09:27:06;;;;;;;20.10;9.07;;;;;;;;;;5100281;28;20075;-71
2023/01/16 09:29:32;;;;;;;16.80;7.28;;;;;;;;;;5106562;28;20046;-71
2023/01/16 09:32:00;;;;;;;16.88;6.95;;;;;;;;;;5106507;27;20578;-71
2023/01/16 09:34:27;;;;;;;17.45;7.35;;;;;;;;;;5097044;27;20511;-70
2023/01/16 09:36:53;;;;;;;18.75;8.40;;;;;;;;;;5092740;28;20051;-70
2023/01/16 09:39:19;;;;;;;18.58;7.38;;;;;;;;;;5108602;28;20437;-70
2023/01/16 09:44:40;;;;;;;13.50;5.63;;;;;;;;;;5104913;28;20042;-70
2023/01/16 09:47:09;;;;;;;17.50;7.20;;;;;;;;;;5105124;28;20490;-71
2023/01/16 09:49:46;;;;;;;14.77;6.35;;;;;;;;;;5107215;28;20040;-71
2023/01/16 10:00:35;;;;;;;16.00;6.07;;;;;;;;;;5107116;28;20036;-70
2023/01/16 10:03:01;;;;;;;21.50;13.10;;;;;;;;;;5109673;28;20046;-71
2023/01/16 10:05:31;;;;;;;17.55;6.50;;;;;;;;;;5106981;28;20040;-72
2023/01/16 10:08:02;;;;;;;17.23;8.10;;;;;;;;;;5107361;27;20044;-71
2023/01/16 10:10:38;;;;;;;16.00;6.85;;;;;;;;;;5103902;28;20104;-72
2023/01/16 10:13:16;;;;;;;14.13;5.93;;;;;;;;;;5084776;28;20035;-71
2023/01/16 10:15:48;;;;;;;11.02;5.10;;;;;;;;;;5108631;28;20558;-72
2023/01/16 10:18:18;;;;;;;16.92;8.57;;;;;;;;;;5110138;28;20508;-72
2023/01/16 10:20:53;;;;;;;15.38;6.32;;;;;;;;;;5109944;28;20047;-72
2023/01/16 10:23:32;;;;;;;11.82;5.45;;;;;;;;;;5108881;28;20487;-71
2023/01/16 10:26:05;;;;;;;17.48;5.57;;;;;;;;;;5110103;27;20131;-72
2023/01/16 10:28:40;;;;;;;17.48;10.30;;;;;;;;;;5106312;28;20126;-71
2023/01/16 10:31:09;;;;;;;18.60;6.47;;;;;;;;;;5101562;28;20040;-71
2023/01/16 10:33:40;;;;;;;14.27;6.07;;;;;;;;;;5109066;28;20404;-76
2023/01/16 10:36:09;;;;;;;11.30;5.47;;;;;;;;;;5105448;28;20119;-71
2023/01/16 10:49:25;;;;;;;16.02;5.85;;;;;;;;;;5108755;28;20044;-71
2023/01/16 10:49:27;;;;;;;11.82;4.75;;;;;;;;;;5108804;28;20122;-69
2023/01/16 10:51:55;;;;;;;13.68;5.15;;;;;;;;;;5105774;28;20054;-71
2023/01/16 10:54:21;;;;;;;11.52;4.50;;;;;;;;;;5105124;27;20040;-70
2023/01/16 10:56:48;;;;;;;9.63;4.05;;;;;;;;;;5105912;27;20046;-69
2023/01/16 10:59:15;;;;;;;8.68;4.88;;;;;;;;;;5104569;28;20425;-70
2023/01/16 11:01:42;;;;;;;13.07;3.45;;;;;;;;;;5107753;28;20040;-70
2023/01/16 11:04:10;;;;;;;10.70;4.13;;;;;;;;;;5107291;28;20158;-70
2023/01/16 11:06:40;;;;;;;10.52;3.65;;;;;;;;;;5109138;28;20445;-70
2023/01/16 11:09:08;;;;;;;15.68;9.18;;;;;;;;;;5097025;28;20055;-70
2023/01/16 11:20:02;;;;;;;;;;;;;;;;;;5101713;28;20039;-72
2023/01/16 11:22:28;;;;;;;5.70;2.55;;;;;;;;;;5100117;28;19930;-71
2023/01/16 11:24:58;;;;;;;8.45;2.92;;;;;;;;;;5109279;28;20071;-79
2023/01/16 11:27:26;;;;;;;5.40;2.97;;;;;;;;;;5104813;28;20051;-71
2023/01/16 11:29:54;;;;;;;5.03;2.25;;;;;;;;;;5108223;28;20119;-71
2023/01/16 11:32:28;;;;;;;5.47;1.92;;;;;;;;;;5106102;28;20043;-70
2023/01/16 11:34:56;;;;;;;6.60;2.28;;;;;;;;;;5075651;28;20086;-70
2023/01/16 11:37:22;;;;;;;3.78;1.80;;;;;;;;;;5107114;28;20093;-81
2023/01/16 11:39:51;;;;;;;5.63;2.03;;;;;;;;;;5098944;28;20051;-69
2023/01/16 11:48:22;;;;;;;3.30;1.60;;;;;;;;;;5108607;28;20043;-71
2023/01/16 11:50:50;;;;;;;6.38;2.20;;;;;;;;;;5110467;28;20060;-70
2023/01/16 11:53:16;;;;;;;4.50;2.25;;;;;;;;;;5111091;28;20105;-70
2023/01/16 11:55:47;;;;;;;4.47;2.00;;;;;;;;;;5111876;28;20075;-70
2023/01/16 11:58:26;;;;;;;3.28;1.98;;;;;;;;;;5111808;28;20052;-70
2023/01/16 12:00:56;;;;;;;5.95;2.10;;;;;;;;;;5110689;28;20039;-70
2023/01/16 12:03:37;;;;;;;4.15;2.25;;;;;;;;;;5111337;28;20130;-71
2023/01/16 12:06:09;;;;;;;5.53;2.08;;;;;;;;;;5105568;28;20035;-71
2023/01/16 12:08:49;;;;;;;4.63;1.80;;;;;;;;;;5107906;28;20524;-73
2023/01/16 12:11:41;;;;;;;5.15;2.10;;;;;;;;;;5111454;28;20036;-72
2023/01/16 12:14:18;;;;;;;3.03;1.70;;;;;;;;;;5094465;28;20356;-72
2023/01/16 12:16:46;;;;;;;5.05;2.30;;;;;;;;;;5109299;28;20043;-71
2023/01/16 12:19:16;;;;;;;4.32;2.33;;;;;;;;;;5111275;28;20118;-71
2023/01/16 12:21:50;;;;;;;4.55;2.40;;;;;;;;;;5110206;28;20119;-70
2023/01/16 12:24:17;;;;;;;6.35;2.00;;;;;;;;;;5111477;28;20484;-70
2023/01/16 12:26:58;;;;;;;3.65;2.17;;;;;;;;;;5106299;28;20031;-71
2023/01/16 12:29:39;;;;;;;5.47;2.00;;;;;;;;;;5110311;28;20432;-72
2023/01/16 12:32:17;;;;;;;5.78;2.22;;;;;;;;;;5114225;28;20368;-71
2023/01/16 12:34:43;;;;;;;5.32;2.30;;;;;;;;;;5113783;28;20043;-72
2023/01/16 12:37:18;;;;;;;4.05;2.10;;;;;;;;;;5114131;27;20050;-72
2023/01/16 12:39:50;;;;;;;3.55;2.17;;;;;;;;;;5111846;28;20036;-71
2023/01/16 12:45:13;;;;;;;3.97;2.42;;;;;;;;;;5114501;28;20036;-70
2023/01/16 12:47:42;;;;;;;8.02;2.72;;;;;;;;;;5100301;28;20490;-70
2023/01/16 12:50:27;;;;;;;5.05;2.70;;;;;;;;;;5114386;27;20092;-70
2023/01/16 12:53:08;;;;;;;4.43;2.47;;;;;;;;;;5115861;27;20062;-70
2023/01/16 12:55:45;;;;;;;8.23;3.28;;;;;;;;;;5109021;27;20079;-72
2023/01/16 12:58:15;;;;;;;5.65;3.30;;;;;;;;;;5108296;27;20414;-71
2023/01/16 13:00:45;;;;;;;10.40;3.10;;;;;;;;;;5105440;28;20122;-72
2023/01/16 13:03:15;;;;;;;7.82;2.95;;;;;;;;;;5086649;28;20043;-72
2023/01/16 13:05:44;;;;;;;6.60;3.45;;;;;;;;;;5110551;28;20039;-71
2023/01/16 13:08:16;;;;;;;4.60;3.03;;;;;;;;;;5112578;28;20044;-71
2023/01/16 13:13:34;;;;;;;5.22;3.13;;;;;;;;;;5111882;28;20036;-70
2023/01/16 13:16:03;;;;;;;8.38;3.70;;;;;;;;;;5106596;28;20054;-71
2023/01/16 13:18:33;;;;;;;6.97;3.85;;;;;;;;;;5102195;28;20075;-71
2023/01/16 13:21:00;;;;;;;6.75;3.70;;;;;;;;;;5110571;28;20084;-70
2023/01/16 13:23:33;;;;;;;7.30;3.80;;;;;;;;;;5097244;28;20047;-71
2023/01/16 13:26:02;;;;;;;8.82;3.92;;;;;;;;;;5112349;28;20387;-71
2023/01/16 13:28:28;;;;;;;5.32;3.30;;;;;;;;;;5111901;28;20047;-70
2023/01/16 13:30:56;;;;;;;5.35;3.33;;;;;;;;;;5108168;27;20074;-71
2023/01/16 13:33:24;;;;;;;6.57;3.75;;;;;;;;;;5109099;28;20122;-71
2023/01/16 13:35:52;;;;;;;5.80;3.67;;;;;;;;;;5104479;28;20039;-71
2023/01/16 13:38:36;;;;;;;5.72;4.15;;;;;;;;;;5106054;28;20047;-71
2023/01/16 13:41:16;;;;;;;5.57;3.85;;;;;;;;;;5102194;28;20112;-71
2023/01/16 13:46:31;;;;;;;7.50;4.20;;;;;;;;;;5104079;27;20052;-71
2023/01/16 13:49:00;;;;;;;6.45;3.92;;;;;;;;;;5106903;28;20032;-71
2023/01/16 13:51:27;;;;;;;7.60;4.45;;;;;;;;;;5108358;28;20044;-71
2023/01/16 13:53:57;;;;;;;7.72;4.43;;;;;;;;;;5103720;27;20067;-71
2023/01/16 13:56:25;;;;;;;8.07;4.28;;;;;;;;;;5093120;28;20098;-71
2023/01/16 13:58:56;;;;;;;8.07;4.78;;;;;;;;;;5110979;28;20487;-71
2023/01/16 14:01:33;;;;;;;8.77;4.70;;;;;;;;;;5101647;28;20494;-71
2023/01/16 14:04:11;;;;;;;10.32;5.15;;;;;;;;;;5111796;28;20112;-71
2023/01/16 14:06:45;;;;;;;9.88;5.45;;;;;;;;;;5107102;28;20046;-69
2023/01/16 14:09:17;;;;;;;9.13;6.03;;;;;;;;;;5107784;28;20043;-69
2023/01/16 14:11:56;;;;;;;10.88;5.78;;;;;;;;;;5106085;28;20055;-70
2023/01/16 14:17:16;;;;;;;9.55;5.85;;;;;;;;;;5107539;28;20053;-71
2023/01/16 14:19:51;;;;;;;9.05;6.15;;;;;;;;;;5103229;27;20123;-70
2023/01/16 14:24:47;;;;;;;9.52;6.13;;;;;;;;;;5107861;28;20499;-71
2023/01/16 14:27:14;;;;;;;11.77;7.13;;;;;;;;;;5107908;28;20441;-71
2023/01/16 14:29:48;;;;;;;10.45;7.00;;;;;;;;;;5108932;28;20043;-70
2023/01/16 14:32:14;;;;;;;14.02;7.47;;;;;;;;;;5106050;28;20065;-71
2023/01/16 14:34:45;;;;;;;13.07;7.22;;;;;;;;;;5104398;27;20182;-70
2023/01/16 14:37:15;;;;;;;10.55;7.20;;;;;;;;;;5105224;28;20063;-69
2023/01/16 14:39:49;;;;;;;11.60;6.63;;;;;;;;;;5106385;28;20047;-70
2023/01/16 14:56:28;;;;;;;12.80;8.02;;;;;;;;;;5105588;28;20040;-70
2023/01/16 14:59:01;;;;;;;12.55;8.43;;;;;;;;;;5105262;28;20035;-70
2023/01/16 15:04:15;;;;;;;14.77;8.85;;;;;;;;;;5105122;28;20446;-70
2023/01/16 15:06:44;;;;;;;16.60;9.27;;;;;;;;;;5102264;28;20043;-71
2023/01/16 15:09:15;;;;;;;20.60;9.27;;;;;;;;;;5106827;28;20094;-71
2023/01/16 15:11:47;;;;;;;12.20;8.27;;;;;;;;;;5105602;28;20055;-70
2023/01/16 15:14:33;;;;;;;16.30;9.43;;;;;;;;;;5105355;28;20047;-70
2023/01/16 15:23:02;;;;;;;16.10;9.98;;;;;;;;;;5102678;28;20051;-70
2023/01/16 15:25:46;;;;;;;14.90;10.10;;;;;;;;;;5106447;27;20047;-74
2023/01/16 15:28:20;;;;;;;16.75;9.88;;;;;;;;;;5098488;28;20557;-71
2023/01/16 15:30:53;;;;;;;17.70;11.40;;;;;;;;;;5110395;28;20038;-73
2023/01/16 15:33:45;;;;;;;14.38;10.40;;;;;;;;;;5107219;28;20050;-72
2023/01/16 15:36:17;;;;;;;19.98;11.00;;;;;;;;;;5110998;28;20036;-73
2023/01/16 15:38:45;;;;;;;20.73;11.15;;;;;;;;;;5110488;28;20447;-73
2023/01/16 15:41:12;;;;;;;18.70;11.63;;;;;;;;;;5110023;28;20048;-72
2023/01/16 15:46:34;;;;;;;21.05;12.07;;;;;;;;;;5106720;28;20059;-72
2023/01/16 15:49:04;;;;;;;18.77;11.18;;;;;;;;;;5108715;28;20044;-72
2023/01/16 15:51:30;;;;;;;18.85;11.52;;;;;;;;;;5107676;28;20386;-71
2023/01/16 15:53:58;;;;;;;19.67;12.00;;;;;;;;;;5098689;28;20046;-72
2023/01/16 15:56:33;;;;;;;25.33;12.90;;;;;;;;;;5107748;28;20127;-72
2023/01/16 15:58:59;;;;;;;27.98;13.70;;;;;;;;;;5107529;28;20051;-72
2023/01/16 16:01:26;;;;;;;40.67;14.60;;;;;;;;;;5107045;28;20048;-72
2023/01/16 16:03:53;;;;;;;23.05;12.80;;;;;;;;;;5096513;28;20055;-72
2023/01/16 16:06:20;;;;;;;26.13;12.82;;;;;;;;;;5105929;28;20046;-72
2023/01/16 16:08:48;;;;;;;32.03;14.20;;;;;;;;;;5099970;28;20062;-72
2023/01/16 16:11:52;;;;;;;31.15;14.27;;;;;;;;;;5098095;28;20048;-72
2023/01/16 16:20:22;;;;;;;30.95;15.77;;;;;;;;;;5105409;28;20048;-74
2023/01/16 16:22:48;;;;;;;37.03;14.90;;;;;;;;;;5106708;28;20503;-72
2023/01/16 16:25:27;;;;;;;33.80;16.23;;;;;;;;;;5107356;28;20457;-72
2023/01/16 16:27:53;;;;;;;33.17;16.80;;;;;;;;;;5096195;28;20035;-73
2023/01/16 16:30:24;;;;;;;32.67;16.02;;;;;;;;;;5107088;28;20119;-73